sensor_id;sensor_type;location;lat;lon;timestamp;temperature;humidity
13310;DHT22;6723;48.256;16.402;2023-07-29T00:00:57;23.00;96.80
13310;DHT22;6723;48.256;16.402;2023-07-29T00:03:22;23.00;96.90
13310;DHT22;6723;48.256;16.402;2023-07-29T00:05:48;22.90;97.00
13310;DHT22;6723;48.256;16.402;2023-07-29T00:08:14;22.90;97.00
13310;DHT22;6723;48.256;16.402;2023-07-29T00:10:40;22.80;97.10
13310;DHT22;6723;48.256;16.402;2023-07-29T00:13:06;22.80;97.20
13310;DHT22;6723;48.256;16.402;2023-07-29T00:15:32;22.80;97.40
13310;DHT22;6723;48.256;16.402;2023-07-29T00:17:58;22.80;97.50
13310;DHT22;6723;48.256;16.402;2023-07-29T00:20:23;22.80;97.60
13310;DHT22;6723;48.256;16.402;2023-07-29T00:22:49;22.80;97.70
13310;DHT22;6723;48.256;16.402;2023-07-29T00:25:18;22.80;97.90
13310;DHT22;6723;48.256;16.402;2023-07-29T00:27:43;22.90;98.00
13310;DHT22;6723;48.256;16.402;2023-07-29T00:30:09;22.90;98.00
13310;DHT22;6723;48.256;16.402;2023-07-29T00:32:35;22.80;98.10
13310;DHT22;6723;48.256;16.402;2023-07-29T00:35:02;22.80;98.20
13310;DHT22;6723;48.256;16.402;2023-07-29T00:37:29;22.80;98.30
13310;DHT22;6723;48.256;16.402;2023-07-29T00:39:56;22.80;98.40
13310;DHT22;6723;48.256;16.402;2023-07-29T00:42:22;22.80;98.50
13310;DHT22;6723;48.256;16.402;2023-07-29T00:44:48;22.80;98.60
13310;DHT22;6723;48.256;16.402;2023-07-29T00:47:15;22.80;98.70
13310;DHT22;6723;48.256;16.402;2023-07-29T00:49:43;22.80;98.70
13310;DHT22;6723;48.256;16.402;2023-07-29T00:52:09;22.80;98.60
13310;DHT22;6723;48.256;16.402;2023-07-29T00:54:38;22.80;98.50
13310;DHT22;6723;48.256;16.402;2023-07-29T00:57:05;22.80;98.60
13310;DHT22;6723;48.256;16.402;2023-07-29T00:59:31;22.80;98.50
13310;DHT22;6723;48.256;16.402;2023-07-29T01:01:58;22.80;98.50
13310;DHT22;6723;48.256;16.402;2023-07-29T01:04:23;22.80;98.50
13310;DHT22;6723;48.256;16.402;2023-07-29T01:06:59;22.80;98.50
13310;DHT22;6723;48.256;16.402;2023-07-29T01:12:54;22.90;98.60
13310;DHT22;6723;48.256;16.402;2023-07-29T01:17:30;22.80;98.60
13310;DHT22;6723;48.256;16.402;2023-07-29T01:20:00;22.90;98.60
13310;DHT22;6723;48.256;16.402;2023-07-29T01:22:29;22.80;98.60
13310;DHT22;6723;48.256;16.402;2023-07-29T01:24:57;22.80;98.60
13310;DHT22;6723;48.256;16.402;2023-07-29T01:27:23;22.80;98.70
13310;DHT22;6723;48.256;16.402;2023-07-29T01:29:49;22.80;98.80
13310;DHT22;6723;48.256;16.402;2023-07-29T01:32:20;22.80;98.90
13310;DHT22;6723;48.256;16.402;2023-07-29T01:34:57;22.70;98.80
13310;DHT22;6723;48.256;16.402;2023-07-29T01:37:27;22.70;98.90
13310;DHT22;6723;48.256;16.402;2023-07-29T01:39:57;22.70;99.00
13310;DHT22;6723;48.256;16.402;2023-07-29T01:42:25;22.60;99.20
13310;DHT22;6723;48.256;16.402;2023-07-29T01:44:52;22.50;99.30
13310;DHT22;6723;48.256;16.402;2023-07-29T01:47:17;22.40;99.50
13310;DHT22;6723;48.256;16.402;2023-07-29T01:49:43;22.40;99.60
13310;DHT22;6723;48.256;16.402;2023-07-29T01:52:09;22.30;99.70
13310;DHT22;6723;48.256;16.402;2023-07-29T01:54:34;22.30;99.90
13310;DHT22;6723;48.256;16.402;2023-07-29T01:57:00;22.40;99.90
13310;DHT22;6723;48.256;16.402;2023-07-29T01:59:26;22.30;99.90
13310;DHT22;6723;48.256;16.402;2023-07-29T02:01:51;22.30;99.90
13310;DHT22;6723;48.256;16.402;2023-07-29T02:04:17;22.30;99.90
13310;DHT22;6723;48.256;16.402;2023-07-29T02:06:43;22.30;99.90
13310;DHT22;6723;48.256;16.402;2023-07-29T02:09:09;22.30;99.90
13310;DHT22;6723;48.256;16.402;2023-07-29T02:11:34;22.20;99.90
13310;DHT22;6723;48.256;16.402;2023-07-29T02:14:00;22.20;99.90
13310;DHT22;6723;48.256;16.402;2023-07-29T02:16:26;22.20;99.90
13310;DHT22;6723;48.256;16.402;2023-07-29T02:18:52;22.30;99.90
13310;DHT22;6723;48.256;16.402;2023-07-29T02:21:17;22.30;99.90
13310;DHT22;6723;48.256;16.402;2023-07-29T02:23:43;22.30;99.90
13310;DHT22;6723;48.256;16.402;2023-07-29T02:26:09;22.30;99.90
13310;DHT22;6723;48.256;16.402;2023-07-29T02:28:35;22.30;99.90
13310;DHT22;6723;48.256;16.402;2023-07-29T02:31:20;22.20;99.90
13310;DHT22;6723;48.256;16.402;2023-07-29T02:33:47;22.20;99.90
13310;DHT22;6723;48.256;16.402;2023-07-29T02:36:13;22.20;99.90
13310;DHT22;6723;48.256;16.402;2023-07-29T02:38:40;22.20;99.90
13310;DHT22;6723;48.256;16.402;2023-07-29T02:41:07;22.20;99.90
13310;DHT22;6723;48.256;16.402;2023-07-29T02:43:35;22.10;99.90
13310;DHT22;6723;48.256;16.402;2023-07-29T02:46:02;22.20;99.90
13310;DHT22;6723;48.256;16.402;2023-07-29T02:48:28;22.10;99.90
13310;DHT22;6723;48.256;16.402;2023-07-29T02:50:55;22.10;99.90
13310;DHT22;6723;48.256;16.402;2023-07-29T02:53:22;22.10;99.90
13310;DHT22;6723;48.256;16.402;2023-07-29T02:55:48;22.10;99.80
13310;DHT22;6723;48.256;16.402;2023-07-29T02:58:14;22.10;99.80
13310;DHT22;6723;48.256;16.402;2023-07-29T03:00:40;22.10;99.80
13310;DHT22;6723;48.256;16.402;2023-07-29T03:03:09;22.10;99.80
13310;DHT22;6723;48.256;16.402;2023-07-29T03:05:35;22.10;99.70
13310;DHT22;6723;48.256;16.402;2023-07-29T03:08:01;22.10;99.40
13310;DHT22;6723;48.256;16.402;2023-07-29T03:10:27;22.10;99.50
13310;DHT22;6723;48.256;16.402;2023-07-29T03:12:56;22.10;99.00
13310;DHT22;6723;48.256;16.402;2023-07-29T03:15:25;22.10;98.70
13310;DHT22;6723;48.256;16.402;2023-07-29T03:17:52;22.10;98.40
13310;DHT22;6723;48.256;16.402;2023-07-29T03:20:19;22.10;98.10
13310;DHT22;6723;48.256;16.402;2023-07-29T03:22:45;22.10;98.00
13310;DHT22;6723;48.256;16.402;2023-07-29T03:25:12;22.10;98.00
13310;DHT22;6723;48.256;16.402;2023-07-29T03:27:38;22.10;98.00
13310;DHT22;6723;48.256;16.402;2023-07-29T03:30:05;22.10;98.00
13310;DHT22;6723;48.256;16.402;2023-07-29T03:32:32;22.10;98.10
13310;DHT22;6723;48.256;16.402;2023-07-29T03:34:58;22.10;98.00
13310;DHT22;6723;48.256;16.402;2023-07-29T03:37:24;22.00;98.00
13310;DHT22;6723;48.256;16.402;2023-07-29T03:39:50;22.00;98.00
13310;DHT22;6723;48.256;16.402;2023-07-29T03:42:18;22.10;98.10
13310;DHT22;6723;48.256;16.402;2023-07-29T03:44:43;22.10;98.20
13310;DHT22;6723;48.256;16.402;2023-07-29T03:47:09;22.10;98.20
13310;DHT22;6723;48.256;16.402;2023-07-29T03:49:35;22.10;98.00
13310;DHT22;6723;48.256;16.402;2023-07-29T03:52:00;22.10;98.00
13310;DHT22;6723;48.256;16.402;2023-07-29T03:54:26;22.00;97.80
13310;DHT22;6723;48.256;16.402;2023-07-29T03:56:52;22.10;98.00
13310;DHT22;6723;48.256;16.402;2023-07-29T03:59:17;22.00;97.90
13310;DHT22;6723;48.256;16.402;2023-07-29T04:01:43;22.10;97.90
13310;DHT22;6723;48.256;16.402;2023-07-29T04:04:09;22.10;97.50
13310;DHT22;6723;48.256;16.402;2023-07-29T04:06:35;22.10;97.20
13310;DHT22;6723;48.256;16.402;2023-07-29T04:09:00;22.10;97.30
13310;DHT22;6723;48.256;16.402;2023-07-29T04:11:26;22.10;97.10
13310;DHT22;6723;48.256;16.402;2023-07-29T04:13:52;22.10;97.20
13310;DHT22;6723;48.256;16.402;2023-07-29T04:16:18;22.10;97.00
13310;DHT22;6723;48.256;16.402;2023-07-29T04:18:43;22.10;97.10
13310;DHT22;6723;48.256;16.402;2023-07-29T04:21:09;22.10;96.90
13310;DHT22;6723;48.256;16.402;2023-07-29T04:23:35;22.10;96.90
13310;DHT22;6723;48.256;16.402;2023-07-29T04:26:01;22.10;96.90
13310;DHT22;6723;48.256;16.402;2023-07-29T04:28:26;22.10;96.60
13310;DHT22;6723;48.256;16.402;2023-07-29T04:30:52;22.20;96.80
13310;DHT22;6723;48.256;16.402;2023-07-29T04:33:18;22.10;96.60
13310;DHT22;6723;48.256;16.402;2023-07-29T04:35:43;22.10;96.60
13310;DHT22;6723;48.256;16.402;2023-07-29T04:38:09;22.10;96.60
13310;DHT22;6723;48.256;16.402;2023-07-29T04:40:35;22.10;96.60
13310;DHT22;6723;48.256;16.402;2023-07-29T04:43:01;22.10;96.60
13310;DHT22;6723;48.256;16.402;2023-07-29T04:45:30;22.10;96.80
13310;DHT22;6723;48.256;16.402;2023-07-29T04:47:57;22.20;96.70
13310;DHT22;6723;48.256;16.402;2023-07-29T04:50:24;22.20;96.60
13310;DHT22;6723;48.256;16.402;2023-07-29T04:52:49;22.20;96.70
13310;DHT22;6723;48.256;16.402;2023-07-29T04:55:15;22.20;96.80
13310;DHT22;6723;48.256;16.402;2023-07-29T04:57:41;22.20;96.70
13310;DHT22;6723;48.256;16.402;2023-07-29T05:00:07;22.20;96.70
13310;DHT22;6723;48.256;16.402;2023-07-29T05:02:33;22.10;96.70
13310;DHT22;6723;48.256;16.402;2023-07-29T05:04:58;22.10;96.70
13310;DHT22;6723;48.256;16.402;2023-07-29T05:07:24;22.10;96.90
13310;DHT22;6723;48.256;16.402;2023-07-29T05:09:50;22.10;96.90
13310;DHT22;6723;48.256;16.402;2023-07-29T05:12:15;22.10;96.90
13310;DHT22;6723;48.256;16.402;2023-07-29T05:14:41;22.20;97.00
13310;DHT22;6723;48.256;16.402;2023-07-29T05:17:07;22.20;96.90
13310;DHT22;6723;48.256;16.402;2023-07-29T05:19:33;22.30;96.90
13310;DHT22;6723;48.256;16.402;2023-07-29T05:21:58;22.30;96.90
13310;DHT22;6723;48.256;16.402;2023-07-29T05:24:24;22.30;96.90
13310;DHT22;6723;48.256;16.402;2023-07-29T05:26:50;22.50;96.80
13310;DHT22;6723;48.256;16.402;2023-07-29T05:29:15;22.50;96.80
13310;DHT22;6723;48.256;16.402;2023-07-29T05:31:41;22.50;96.80
13310;DHT22;6723;48.256;16.402;2023-07-29T05:34:07;22.70;96.70
13310;DHT22;6723;48.256;16.402;2023-07-29T05:36:32;22.70;96.70
13310;DHT22;6723;48.256;16.402;2023-07-29T05:38:58;22.80;96.50
13310;DHT22;6723;48.256;16.402;2023-07-29T05:41:24;22.80;96.50
13310;DHT22;6723;48.256;16.402;2023-07-29T05:43:53;22.90;96.50
13310;DHT22;6723;48.256;16.402;2023-07-29T05:46:18;23.00;96.30
13310;DHT22;6723;48.256;16.402;2023-07-29T05:48:44;23.10;96.30
13310;DHT22;6723;48.256;16.402;2023-07-29T05:51:10;23.10;96.10
13310;DHT22;6723;48.256;16.402;2023-07-29T05:53:35;23.00;96.30
13310;DHT22;6723;48.256;16.402;2023-07-29T05:56:01;22.90;96.20
13310;DHT22;6723;48.256;16.402;2023-07-29T05:58:27;23.00;96.10
13310;DHT22;6723;48.256;16.402;2023-07-29T06:00:53;23.10;96.10
13310;DHT22;6723;48.256;16.402;2023-07-29T06:03:18;23.00;96.10
13310;DHT22;6723;48.256;16.402;2023-07-29T06:05:44;23.10;96.20
13310;DHT22;6723;48.256;16.402;2023-07-29T06:08:10;23.10;96.10
13310;DHT22;6723;48.256;16.402;2023-07-29T06:10:36;23.20;96.10
13310;DHT22;6723;48.256;16.402;2023-07-29T06:13:02;23.20;96.00
13310;DHT22;6723;48.256;16.402;2023-07-29T06:15:28;23.20;96.00
13310;DHT22;6723;48.256;16.402;2023-07-29T06:17:53;23.30;96.10
13310;DHT22;6723;48.256;16.402;2023-07-29T06:20:19;23.40;96.00
13310;DHT22;6723;48.256;16.402;2023-07-29T06:22:45;23.50;96.00
13310;DHT22;6723;48.256;16.402;2023-07-29T06:25:10;23.50;95.50
13310;DHT22;6723;48.256;16.402;2023-07-29T06:27:36;23.50;95.70
13310;DHT22;6723;48.256;16.402;2023-07-29T06:30:02;23.70;95.70
13310;DHT22;6723;48.256;16.402;2023-07-29T06:32:28;24.00;95.40
13310;DHT22;6723;48.256;16.402;2023-07-29T06:34:54;24.00;95.00
13310;DHT22;6723;48.256;16.402;2023-07-29T06:37:20;24.30;95.00
13310;DHT22;6723;48.256;16.402;2023-07-29T06:39:46;24.50;94.80
13310;DHT22;6723;48.256;16.402;2023-07-29T06:42:12;24.50;94.60
13310;DHT22;6723;48.256;16.402;2023-07-29T06:44:39;24.60;94.30
13310;DHT22;6723;48.256;16.402;2023-07-29T06:47:05;24.30;94.60
13310;DHT22;6723;48.256;16.402;2023-07-29T06:49:30;24.40;94.40
13310;DHT22;6723;48.256;16.402;2023-07-29T06:51:56;24.50;94.50
13310;DHT22;6723;48.256;16.402;2023-07-29T06:54:25;24.60;94.20
13310;DHT22;6723;48.256;16.402;2023-07-29T06:56:54;24.90;94.00
13310;DHT22;6723;48.256;16.402;2023-07-29T06:59:20;25.30;93.80
13310;DHT22;6723;48.256;16.402;2023-07-29T07:01:46;25.50;93.00
13310;DHT22;6723;48.256;16.402;2023-07-29T07:04:12;25.10;93.30
13310;DHT22;6723;48.256;16.402;2023-07-29T07:06:37;25.10;93.90
13310;DHT22;6723;48.256;16.402;2023-07-29T07:09:03;25.20;93.60
13310;DHT22;6723;48.256;16.402;2023-07-29T07:11:29;25.10;93.70
13310;DHT22;6723;48.256;16.402;2023-07-29T07:13:55;25.10;93.50
13310;DHT22;6723;48.256;16.402;2023-07-29T07:16:20;24.80;93.40
13310;DHT22;6723;48.256;16.402;2023-07-29T07:18:46;24.50;93.90
13310;DHT22;6723;48.256;16.402;2023-07-29T07:21:12;24.20;94.00
13310;DHT22;6723;48.256;16.402;2023-07-29T07:23:39;24.20;94.30
13310;DHT22;6723;48.256;16.402;2023-07-29T07:26:05;24.20;94.10
13310;DHT22;6723;48.256;16.402;2023-07-29T07:28:30;24.40;94.30
13310;DHT22;6723;48.256;16.402;2023-07-29T07:30:56;24.30;94.30
13310;DHT22;6723;48.256;16.402;2023-07-29T07:33:22;24.40;94.40
13310;DHT22;6723;48.256;16.402;2023-07-29T07:35:48;24.60;94.10
13310;DHT22;6723;48.256;16.402;2023-07-29T07:38:14;25.00;94.00
13310;DHT22;6723;48.256;16.402;2023-07-29T07:40:40;26.70;92.40
13310;DHT22;6723;48.256;16.402;2023-07-29T07:43:05;28.80;90.70
13310;DHT22;6723;48.256;16.402;2023-07-29T07:45:33;29.50;87.80
13310;DHT22;6723;48.256;16.402;2023-07-29T07:47:59;30.70;86.40
13310;DHT22;6723;48.256;16.402;2023-07-29T07:50:24;32.10;81.40
13310;DHT22;6723;48.256;16.402;2023-07-29T07:52:50;31.50;80.60
13310;DHT22;6723;48.256;16.402;2023-07-29T07:55:16;31.80;79.80
13310;DHT22;6723;48.256;16.402;2023-07-29T07:57:41;32.30;78.70
13310;DHT22;6723;48.256;16.402;2023-07-29T08:00:07;31.90;79.10
13310;DHT22;6723;48.256;16.402;2023-07-29T08:02:34;32.60;77.40
13310;DHT22;6723;48.256;16.402;2023-07-29T08:04:59;32.00;77.50
13310;DHT22;6723;48.256;16.402;2023-07-29T08:07:25;32.30;76.00
13310;DHT22;6723;48.256;16.402;2023-07-29T08:09:51;31.70;76.20
13310;DHT22;6723;48.256;16.402;2023-07-29T08:12:17;31.60;76.80
13310;DHT22;6723;48.256;16.402;2023-07-29T08:14:42;32.80;76.30
13310;DHT22;6723;48.256;16.402;2023-07-29T08:17:08;32.30;74.30
13310;DHT22;6723;48.256;16.402;2023-07-29T08:19:34;31.60;75.40
13310;DHT22;6723;48.256;16.402;2023-07-29T08:22:02;31.20;76.50
13310;DHT22;6723;48.256;16.402;2023-07-29T08:24:28;31.60;76.20
13310;DHT22;6723;48.256;16.402;2023-07-29T08:26:54;32.60;74.80
13310;DHT22;6723;48.256;16.402;2023-07-29T08:29:20;33.40;74.80
13310;DHT22;6723;48.256;16.402;2023-07-29T08:31:45;33.50;72.80
13310;DHT22;6723;48.256;16.402;2023-07-29T08:34:11;32.80;73.50
13310;DHT22;6723;48.256;16.402;2023-07-29T08:36:37;33.10;73.20
13310;DHT22;6723;48.256;16.402;2023-07-29T08:39:02;33.30;72.70
13310;DHT22;6723;48.256;16.402;2023-07-29T08:44:26;32.60;74.30
13310;DHT22;6723;48.256;16.402;2023-07-29T08:46:52;33.10;72.70
13310;DHT22;6723;48.256;16.402;2023-07-29T08:49:19;33.80;72.40
13310;DHT22;6723;48.256;16.402;2023-07-29T08:51:49;34.30;72.60
13310;DHT22;6723;48.256;16.402;2023-07-29T08:54:16;34.40;71.70
13310;DHT22;6723;48.256;16.402;2023-07-29T08:56:42;34.20;69.50
13310;DHT22;6723;48.256;16.402;2023-07-29T08:59:08;33.50;70.10
13310;DHT22;6723;48.256;16.402;2023-07-29T09:01:34;33.10;71.50
13310;DHT22;6723;48.256;16.402;2023-07-29T09:04:00;32.70;71.60
13310;DHT22;6723;48.256;16.402;2023-07-29T09:06:26;32.30;72.70
13310;DHT22;6723;48.256;16.402;2023-07-29T09:08:54;33.50;72.80
13310;DHT22;6723;48.256;16.402;2023-07-29T09:11:22;33.50;70.80
13310;DHT22;6723;48.256;16.402;2023-07-29T09:13:48;33.60;71.00
13310;DHT22;6723;48.256;16.402;2023-07-29T09:16:15;33.80;71.60
13310;DHT22;6723;48.256;16.402;2023-07-29T09:18:40;33.70;70.00
13310;DHT22;6723;48.256;16.402;2023-07-29T09:21:06;32.50;71.40
13310;DHT22;6723;48.256;16.402;2023-07-29T09:23:42;33.30;70.30
13310;DHT22;6723;48.256;16.402;2023-07-29T09:26:08;33.50;71.20
13310;DHT22;6723;48.256;16.402;2023-07-29T09:28:36;34.20;70.50
13310;DHT22;6723;48.256;16.402;2023-07-29T09:31:03;34.30;69.10
13310;DHT22;6723;48.256;16.402;2023-07-29T09:33:38;34.20;69.10
13310;DHT22;6723;48.256;16.402;2023-07-29T09:36:11;33.30;69.50
13310;DHT22;6723;48.256;16.402;2023-07-29T09:38:37;33.20;69.30
13310;DHT22;6723;48.256;16.402;2023-07-29T09:41:03;32.50;70.50
13310;DHT22;6723;48.256;16.402;2023-07-29T09:43:30;32.90;70.80
13310;DHT22;6723;48.256;16.402;2023-07-29T09:46:03;32.60;70.60
13310;DHT22;6723;48.256;16.402;2023-07-29T09:48:34;33.10;69.70
13310;DHT22;6723;48.256;16.402;2023-07-29T09:51:08;33.50;68.50
13310;DHT22;6723;48.256;16.402;2023-07-29T09:53:40;33.90;70.40
13310;DHT22;6723;48.256;16.402;2023-07-29T09:56:05;34.30;68.60
13310;DHT22;6723;48.256;16.402;2023-07-29T09:58:32;33.90;68.20
13310;DHT22;6723;48.256;16.402;2023-07-29T10:00:59;33.60;67.40
13310;DHT22;6723;48.256;16.402;2023-07-29T10:03:25;33.10;68.30
13310;DHT22;6723;48.256;16.402;2023-07-29T10:05:51;33.30;68.70
13310;DHT22;6723;48.256;16.402;2023-07-29T10:08:18;33.70;67.70
13310;DHT22;6723;48.256;16.402;2023-07-29T10:10:44;33.10;67.30
13310;DHT22;6723;48.256;16.402;2023-07-29T10:13:10;32.80;67.90
13310;DHT22;6723;48.256;16.402;2023-07-29T10:15:38;33.30;68.00
13310;DHT22;6723;48.256;16.402;2023-07-29T10:18:05;33.10;67.20
13310;DHT22;6723;48.256;16.402;2023-07-29T10:20:32;32.70;68.30
13310;DHT22;6723;48.256;16.402;2023-07-29T10:23:06;32.40;67.90
13310;DHT22;6723;48.256;16.402;2023-07-29T10:25:39;32.40;68.30
13310;DHT22;6723;48.256;16.402;2023-07-29T10:28:12;32.60;69.40
13310;DHT22;6723;48.256;16.402;2023-07-29T10:30:38;33.30;67.70
13310;DHT22;6723;48.256;16.402;2023-07-29T10:33:05;33.60;67.10
13310;DHT22;6723;48.256;16.402;2023-07-29T10:35:35;33.20;68.00
13310;DHT22;6723;48.256;16.402;2023-07-29T10:38:02;33.10;68.20
13310;DHT22;6723;48.256;16.402;2023-07-29T10:40:52;32.90;67.10
13310;DHT22;6723;48.256;16.402;2023-07-29T10:43:32;32.90;67.00
13310;DHT22;6723;48.256;16.402;2023-07-29T10:51:29;32.60;67.70
13310;DHT22;6723;48.256;16.402;2023-07-29T10:54:14;32.60;68.10
13310;DHT22;6723;48.256;16.402;2023-07-29T10:56:42;32.90;67.30
13310;DHT22;6723;48.256;16.402;2023-07-29T10:59:31;33.00;66.30
13310;DHT22;6723;48.256;16.402;2023-07-29T11:01:59;33.60;66.50
13310;DHT22;6723;48.256;16.402;2023-07-29T11:04:26;33.40;65.10
13310;DHT22;6723;48.256;16.402;2023-07-29T11:20:08;33.10;65.00
13310;DHT22;6723;48.256;16.402;2023-07-29T11:22:35;32.90;65.00
13310;DHT22;6723;48.256;16.402;2023-07-29T11:25:02;32.80;64.50
13310;DHT22;6723;48.256;16.402;2023-07-29T11:27:28;32.30;65.10
13310;DHT22;6723;48.256;16.402;2023-07-29T11:29:58;32.00;66.10
13310;DHT22;6723;48.256;16.402;2023-07-29T11:32:25;32.30;66.10
13310;DHT22;6723;48.256;16.402;2023-07-29T11:34:51;32.00;66.60
13310;DHT22;6723;48.256;16.402;2023-07-29T11:37:17;32.20;66.50
13310;DHT22;6723;48.256;16.402;2023-07-29T11:39:44;31.70;66.70
13310;DHT22;6723;48.256;16.402;2023-07-29T11:42:12;31.70;67.30
13310;DHT22;6723;48.256;16.402;2023-07-29T11:44:38;31.40;67.50
13310;DHT22;6723;48.256;16.402;2023-07-29T11:47:11;31.10;68.40
13310;DHT22;6723;48.256;16.402;2023-07-29T11:49:40;31.20;68.10
13310;DHT22;6723;48.256;16.402;2023-07-29T11:52:10;31.30;67.70
13310;DHT22;6723;48.256;16.402;2023-07-29T11:54:37;31.30;67.80
13310;DHT22;6723;48.256;16.402;2023-07-29T11:57:07;31.50;67.60
13310;DHT22;6723;48.256;16.402;2023-07-29T11:59:35;31.40;67.60
13310;DHT22;6723;48.256;16.402;2023-07-29T12:02:06;31.60;67.90
13310;DHT22;6723;48.256;16.402;2023-07-29T12:04:33;31.80;67.60
13310;DHT22;6723;48.256;16.402;2023-07-29T12:07:00;32.30;66.10
13310;DHT22;6723;48.256;16.402;2023-07-29T12:09:27;32.70;66.90
13310;DHT22;6723;48.256;16.402;2023-07-29T12:11:54;32.60;65.60
13310;DHT22;6723;48.256;16.402;2023-07-29T12:14:20;32.40;66.00
13310;DHT22;6723;48.256;16.402;2023-07-29T12:16:48;32.60;66.10
13310;DHT22;6723;48.256;16.402;2023-07-29T12:19:15;33.20;64.90
13310;DHT22;6723;48.256;16.402;2023-07-29T12:21:42;33.30;64.20
13310;DHT22;6723;48.256;16.402;2023-07-29T12:24:08;33.70;63.90
13310;DHT22;6723;48.256;16.402;2023-07-29T12:26:35;33.60;64.00
13310;DHT22;6723;48.256;16.402;2023-07-29T12:29:22;33.40;63.80
13310;DHT22;6723;48.256;16.402;2023-07-29T12:31:48;33.10;65.10
13310;DHT22;6723;48.256;16.402;2023-07-29T12:34:18;33.20;65.80
13310;DHT22;6723;48.256;16.402;2023-07-29T12:36:50;33.70;66.40
13310;DHT22;6723;48.256;16.402;2023-07-29T12:39:20;33.70;66.60
13310;DHT22;6723;48.256;16.402;2023-07-29T12:41:47;34.00;66.00
13310;DHT22;6723;48.256;16.402;2023-07-29T12:44:14;33.80;67.20
13310;DHT22;6723;48.256;16.402;2023-07-29T12:46:40;33.10;67.50
13310;DHT22;6723;48.256;16.402;2023-07-29T12:49:06;33.50;67.00
13310;DHT22;6723;48.256;16.402;2023-07-29T12:51:32;33.10;66.20
13310;DHT22;6723;48.256;16.402;2023-07-29T12:53:58;33.20;66.30
13310;DHT22;6723;48.256;16.402;2023-07-29T12:56:23;32.70;65.80
13310;DHT22;6723;48.256;16.402;2023-07-29T12:58:49;32.30;66.70
13310;DHT22;6723;48.256;16.402;2023-07-29T13:01:15;32.10;67.20
13310;DHT22;6723;48.256;16.402;2023-07-29T13:03:50;32.00;68.30
13310;DHT22;6723;48.256;16.402;2023-07-29T13:06:16;31.90;69.10
13310;DHT22;6723;48.256;16.402;2023-07-29T13:08:42;32.00;71.00
13310;DHT22;6723;48.256;16.402;2023-07-29T13:11:08;31.70;72.00
13310;DHT22;6723;48.256;16.402;2023-07-29T13:13:34;31.80;73.00
13310;DHT22;6723;48.256;16.402;2023-07-29T13:16:00;32.10;72.80
13310;DHT22;6723;48.256;16.402;2023-07-29T13:18:27;32.10;73.00
13310;DHT22;6723;48.256;16.402;2023-07-29T13:20:54;32.20;70.90
13310;DHT22;6723;48.256;16.402;2023-07-29T13:23:20;32.00;70.70
13310;DHT22;6723;48.256;16.402;2023-07-29T13:25:46;31.50;67.60
13310;DHT22;6723;48.256;16.402;2023-07-29T13:28:12;31.30;67.50
13310;DHT22;6723;48.256;16.402;2023-07-29T13:30:42;31.00;66.90
13310;DHT22;6723;48.256;16.402;2023-07-29T13:33:08;31.00;67.10
13310;DHT22;6723;48.256;16.402;2023-07-29T13:35:34;30.90;66.90
13310;DHT22;6723;48.256;16.402;2023-07-29T13:38:01;30.70;65.90
13310;DHT22;6723;48.256;16.402;2023-07-29T13:40:26;30.40;66.40
13310;DHT22;6723;48.256;16.402;2023-07-29T13:42:53;30.50;67.80
13310;DHT22;6723;48.256;16.402;2023-07-29T13:45:19;30.80;67.50
13310;DHT22;6723;48.256;16.402;2023-07-29T13:47:45;31.00;67.20
13310;DHT22;6723;48.256;16.402;2023-07-29T13:50:10;30.80;66.10
13310;DHT22;6723;48.256;16.402;2023-07-29T13:52:37;30.40;66.50
13310;DHT22;6723;48.256;16.402;2023-07-29T13:55:04;30.30;67.10
13310;DHT22;6723;48.256;16.402;2023-07-29T13:57:31;30.10;67.40
13310;DHT22;6723;48.256;16.402;2023-07-29T13:59:57;30.10;67.90
13310;DHT22;6723;48.256;16.402;2023-07-29T14:02:23;30.20;68.20
13310;DHT22;6723;48.256;16.402;2023-07-29T14:04:49;30.40;68.80
13310;DHT22;6723;48.256;16.402;2023-07-29T14:07:14;30.70;68.20
13310;DHT22;6723;48.256;16.402;2023-07-29T14:09:41;31.00;67.60
13310;DHT22;6723;48.256;16.402;2023-07-29T14:12:08;31.00;67.80
13310;DHT22;6723;48.256;16.402;2023-07-29T14:14:38;30.80;68.00
13310;DHT22;6723;48.256;16.402;2023-07-29T14:17:04;31.00;67.90
13310;DHT22;6723;48.256;16.402;2023-07-29T14:19:31;31.00;68.50
13310;DHT22;6723;48.256;16.402;2023-07-29T14:21:57;31.20;67.90
13310;DHT22;6723;48.256;16.402;2023-07-29T14:24:23;31.70;67.90
13310;DHT22;6723;48.256;16.402;2023-07-29T14:26:49;31.90;67.50
13310;DHT22;6723;48.256;16.402;2023-07-29T14:29:14;32.00;67.50
13310;DHT22;6723;48.256;16.402;2023-07-29T14:31:40;31.90;66.70
13310;DHT22;6723;48.256;16.402;2023-07-29T14:34:06;31.80;67.30
13310;DHT22;6723;48.256;16.402;2023-07-29T14:36:32;31.80;67.30
13310;DHT22;6723;48.256;16.402;2023-07-29T14:38:57;31.70;67.70
13310;DHT22;6723;48.256;16.402;2023-07-29T14:41:23;31.40;67.60
13310;DHT22;6723;48.256;16.402;2023-07-29T14:43:49;31.30;68.30
13310;DHT22;6723;48.256;16.402;2023-07-29T14:46:15;31.60;68.60
13310;DHT22;6723;48.256;16.402;2023-07-29T14:48:41;31.50;68.80
13310;DHT22;6723;48.256;16.402;2023-07-29T14:51:06;31.60;68.80
13310;DHT22;6723;48.256;16.402;2023-07-29T14:53:32;31.50;68.50
13310;DHT22;6723;48.256;16.402;2023-07-29T14:55:58;31.60;67.80
13310;DHT22;6723;48.256;16.402;2023-07-29T14:58:24;31.30;68.40
13310;DHT22;6723;48.256;16.402;2023-07-29T15:00:52;31.00;68.50
13310;DHT22;6723;48.256;16.402;2023-07-29T15:03:18;30.90;69.20
13310;DHT22;6723;48.256;16.402;2023-07-29T15:05:43;30.70;69.40
13310;DHT22;6723;48.256;16.402;2023-07-29T15:08:09;30.70;69.90
13310;DHT22;6723;48.256;16.402;2023-07-29T15:10:35;30.70;70.00
13310;DHT22;6723;48.256;16.402;2023-07-29T15:13:02;30.50;70.20
13310;DHT22;6723;48.256;16.402;2023-07-29T15:15:28;30.30;70.40
13310;DHT22;6723;48.256;16.402;2023-07-29T15:17:54;30.30;70.80
13310;DHT22;6723;48.256;16.402;2023-07-29T15:20:19;30.50;71.00
13310;DHT22;6723;48.256;16.402;2023-07-29T15:22:45;30.30;70.40
13310;DHT22;6723;48.256;16.402;2023-07-29T15:25:11;30.10;71.00
13310;DHT22;6723;48.256;16.402;2023-07-29T15:27:37;30.10;71.00
13310;DHT22;6723;48.256;16.402;2023-07-29T15:30:05;30.10;71.50
13310;DHT22;6723;48.256;16.402;2023-07-29T15:32:31;30.10;71.30
13310;DHT22;6723;48.256;16.402;2023-07-29T15:34:57;30.40;71.80
13310;DHT22;6723;48.256;16.402;2023-07-29T15:37:25;30.40;71.00
13310;DHT22;6723;48.256;16.402;2023-07-29T15:39:51;30.50;71.10
13310;DHT22;6723;48.256;16.402;2023-07-29T15:42:17;30.30;70.80
13310;DHT22;6723;48.256;16.402;2023-07-29T15:44:43;30.10;71.30
13310;DHT22;6723;48.256;16.402;2023-07-29T15:47:09;29.90;71.80
13310;DHT22;6723;48.256;16.402;2023-07-29T15:49:34;29.70;72.10
13310;DHT22;6723;48.256;16.402;2023-07-29T15:52:00;29.70;72.40
13310;DHT22;6723;48.256;16.402;2023-07-29T15:54:26;29.80;72.90